Plentywood (PWD)
Plentywood, MT
Field Elevation: 2251
Lat: 48°47.32N  Long: 104°31.39W
CTAF/Unicom Freq: 122.8000
   
     For Weather-by-Phone, call 406-765-2149
Weather Advisories
10/31/2014 19:46 Z
Altimeter 30.00" Hg
Wind 140° @ 22 KT
Gusts 30 KT
Visibility 10 SM
Temperature 7° C (45° F)
Dewpoint -2° C (28° F)
Relative Humidity 53%
Density Altitude --
Condensation Altitude 6,700 feet
Wind Chill 2° C (36° F)
  Wind and Runways
Indicated Runway = 12
History
 
 
More Info
All DigiWx sites map
NOAA Forecast
 
Airport IQ 5010
(S59) Libby
(6S5) Ravalli County
 
about DigiWx
 
FAA Disclaimer: The data displayed is for advisory purposes only and is not to be used for flight planning or operations. For official data, please call 406-765-2149 to hear the current automated AWOS voice message.
  METAR PWD 311946Z AUTO 14022G30KT 10SM 07/M02 A3000